createdAt,value
2018-11-01T00:01:04.337Z,10.70
2018-11-01T00:03:32.938Z,10.43
2018-11-01T00:06:00.969Z,12.20
2018-11-01T00:08:28.986Z,11.37
2018-11-01T00:10:56.974Z,12.00
2018-11-01T00:13:24.970Z,11.07
2018-11-01T00:15:52.911Z,10.13
2018-11-01T00:18:20.840Z,10.13
2018-11-01T00:20:48.796Z,11.87
2018-11-01T00:23:16.742Z,12.30
2018-11-01T00:25:44.742Z,10.07
2018-11-01T00:28:12.632Z,11.30
2018-11-01T00:30:41.139Z,11.47
2018-11-01T00:33:09.144Z,10.77
2018-11-01T00:35:37.112Z,10.80
2018-11-01T00:38:05.573Z,9.93
2018-11-01T00:40:33.506Z,11.53
2018-11-01T00:43:01.459Z,9.60
2018-11-01T00:45:29.471Z,10.47
2018-11-01T00:47:57.501Z,9.43
2018-11-01T00:50:25.449Z,10.07
2018-11-01T00:52:53.405Z,11.40
2018-11-01T00:55:21.353Z,12.10
2018-11-01T00:57:49.340Z,9.43
2018-11-01T01:00:17.340Z,10.03
2018-11-01T01:02:45.281Z,9.30
2018-11-01T01:05:13.303Z,8.80
2018-11-01T01:07:41.329Z,9.43
2018-11-01T01:10:12.735Z,9.70
2018-11-01T01:12:41.345Z,8.60
2018-11-01T01:15:09.621Z,9.30
2018-11-01T01:17:37.728Z,8.97
2018-11-01T01:20:08.074Z,10.20
2018-11-01T01:22:36.069Z,9.60
2018-11-01T01:25:05.356Z,8.93
2018-11-01T01:27:33.228Z,10.03
2018-11-01T01:30:01.148Z,10.47
2018-11-01T01:32:29.099Z,8.97
2018-11-01T01:34:56.972Z,8.43
2018-11-01T01:37:24.860Z,9.07
2018-11-01T01:39:52.794Z,9.40
2018-11-01T01:42:20.788Z,10.17
2018-11-01T01:44:48.701Z,9.50
2018-11-01T01:47:16.654Z,10.17
2018-11-01T01:49:44.590Z,9.87
2018-11-01T01:52:12.622Z,9.80
2018-11-01T01:54:40.631Z,9.30
2018-11-01T01:57:08.530Z,8.13
2018-11-01T01:59:36.508Z,11.50
2018-11-01T02:02:04.859Z,9.67
2018-11-01T02:04:32.785Z,9.50
2018-11-01T02:07:00.689Z,9.73
2018-11-01T02:09:28.637Z,9.83
2018-11-01T02:11:56.719Z,9.70
2018-11-01T02:14:24.647Z,10.07
2018-11-01T02:16:52.567Z,12.03
2018-11-01T02:19:20.538Z,8.10
2018-11-01T02:21:48.522Z,10.70
2018-11-01T02:24:16.528Z,8.47
2018-11-01T02:26:44.596Z,9.43
2018-11-01T02:29:12.564Z,11.03
2018-11-01T02:31:40.534Z,9.10
2018-11-01T02:34:08.491Z,8.83
2018-11-01T02:36:36.444Z,8.90
2018-11-01T02:39:07.634Z,9.57
2018-11-01T02:41:35.629Z,8.13
2018-11-01T02:44:03.619Z,9.50
2018-11-01T02:46:31.501Z,9.80
2018-11-01T02:48:59.466Z,8.83
2018-11-01T02:51:27.741Z,8.63
2018-11-01T02:53:55.766Z,10.17
2018-11-01T02:56:23.708Z,8.27
2018-11-01T02:58:51.832Z,8.50
2018-11-01T03:01:19.812Z,11.20
2018-11-01T03:03:49.073Z,8.90
2018-11-01T03:06:17.764Z,7.90
2018-11-01T03:08:45.897Z,8.63
2018-11-01T03:11:13.944Z,9.67
2018-11-01T03:13:41.973Z,10.57
2018-11-01T03:16:09.969Z,9.83
2018-11-01T03:18:37.949Z,8.00
2018-11-01T03:21:05.986Z,9.80
2018-11-01T03:23:34.020Z,8.10
2018-11-01T03:26:02.043Z,10.47
2018-11-01T03:28:30.066Z,9.37
2018-11-01T03:30:58.093Z,8.57
2018-11-01T03:33:26.018Z,9.00
2018-11-01T03:35:54.031Z,9.00
2018-11-01T03:38:22.086Z,9.97
2018-11-01T03:40:49.967Z,9.03
2018-11-01T03:43:17.871Z,9.77
2018-11-01T03:45:45.865Z,9.73
2018-11-01T03:48:13.764Z,9.87
2018-11-01T03:50:41.725Z,8.90
2018-11-01T03:53:09.665Z,11.07
2018-11-01T03:55:37.641Z,9.87
2018-11-01T03:58:05.992Z,10.53
2018-11-01T04:00:33.976Z,9.80
2018-11-01T04:03:01.921Z,9.73
2018-11-01T04:05:30.624Z,9.43
2018-11-01T04:07:58.669Z,10.10
2018-11-01T04:10:26.579Z,10.67
2018-11-01T04:12:56.291Z,9.33
2018-11-01T04:15:24.402Z,9.27
2018-11-01T04:17:52.235Z,9.00
2018-11-01T04:20:20.234Z,9.17
2018-11-01T04:22:48.791Z,11.60
2018-11-01T04:25:17.608Z,9.33
2018-11-01T04:27:47.168Z,9.07
2018-11-01T04:30:15.176Z,8.47
2018-11-01T04:32:43.178Z,7.73
2018-11-01T04:35:11.167Z,7.77
2018-11-01T04:37:39.414Z,8.83
2018-11-01T04:40:07.851Z,8.33
2018-11-01T04:42:35.809Z,9.60
2018-11-01T04:45:03.907Z,9.77
2018-11-01T04:47:31.881Z,9.47
2018-11-01T04:49:59.825Z,10.00
2018-11-01T04:52:27.785Z,9.17
2018-11-01T04:54:55.794Z,9.43
2018-11-01T04:57:23.815Z,9.53
2018-11-01T04:59:51.765Z,9.60
2018-11-01T05:02:20.166Z,10.33
2018-11-01T05:04:48.191Z,9.50
2018-11-01T05:07:16.226Z,10.30
2018-11-01T05:09:44.158Z,7.80
2018-11-01T05:12:12.114Z,9.80
2018-11-01T05:14:40.077Z,7.83
2018-11-01T05:17:08.036Z,8.90
2018-11-01T05:19:35.974Z,7.47
2018-11-01T05:22:04.670Z,7.97
2018-11-01T05:24:32.572Z,8.60
2018-11-01T05:27:00.501Z,7.97
2018-11-01T05:29:28.451Z,7.93
2018-11-01T05:31:56.420Z,7.83
2018-11-01T05:34:24.369Z,7.70
2018-11-01T05:36:52.314Z,7.80
2018-11-01T05:39:20.303Z,8.37
2018-11-01T05:41:48.223Z,8.80
2018-11-01T05:44:16.180Z,8.13
2018-11-01T05:46:44.217Z,8.10
2018-11-01T05:49:12.188Z,6.73
2018-11-01T05:51:40.133Z,8.90
2018-11-01T05:54:08.013Z,6.93
2018-11-01T05:56:35.971Z,6.70
2018-11-01T05:59:04.020Z,6.80
2018-11-01T06:01:33.352Z,7.10
2018-11-01T06:04:01.928Z,6.37
2018-11-01T06:06:29.833Z,6.63
2018-11-01T06:08:58.996Z,6.47
2018-11-01T06:11:26.880Z,7.73
2018-11-01T06:13:54.868Z,6.63
2018-11-01T06:16:22.860Z,7.10
2018-11-01T06:18:50.808Z,6.47
2018-11-01T06:21:18.745Z,7.80
2018-11-01T06:23:46.663Z,8.17
2018-11-01T06:26:14.756Z,6.90
2018-11-01T06:28:42.719Z,6.27
2018-11-01T06:31:10.665Z,6.47
2018-11-01T06:33:38.737Z,7.10
2018-11-01T06:36:08.800Z,7.20
2018-11-01T06:38:36.801Z,7.63
2018-11-01T06:41:04.763Z,6.43
2018-11-01T06:43:32.688Z,7.40
2018-11-01T06:46:00.725Z,8.30
2018-11-01T06:48:28.703Z,6.37
2018-11-01T06:50:56.626Z,6.20
2018-11-01T06:53:24.565Z,5.87
2018-11-01T06:55:52.454Z,7.40
2018-11-01T06:58:20.415Z,6.03
2018-11-01T07:00:48.404Z,5.47
2018-11-01T07:03:16.353Z,5.50
2018-11-01T07:05:44.325Z,5.43
2018-11-01T07:08:12.271Z,5.73
2018-11-01T07:10:40.357Z,6.93
2018-11-01T07:13:08.323Z,5.23
2018-11-01T07:15:36.365Z,6.00
2018-11-01T07:18:04.528Z,6.63
2018-11-01T07:20:32.510Z,5.67
2018-11-01T07:23:01.444Z,5.43
2018-11-01T07:25:29.570Z,5.27
2018-11-01T07:27:57.445Z,4.60
2018-11-01T07:30:25.554Z,5.70
2018-11-01T07:32:53.547Z,4.90
2018-11-01T07:35:21.544Z,6.17
2018-11-01T07:37:49.568Z,4.80
2018-11-01T07:40:17.992Z,5.23
2018-11-01T07:42:46.070Z,4.83
2018-11-01T07:45:14.660Z,4.97
2018-11-01T07:47:43.445Z,5.30
2018-11-01T07:50:12.471Z,4.60
2018-11-01T07:52:40.917Z,5.27
2018-11-01T07:55:11.353Z,4.90
2018-11-01T07:57:39.265Z,4.93
2018-11-01T08:00:10.677Z,4.77
2018-11-01T08:02:38.675Z,4.30
2018-11-01T08:05:08.022Z,5.57
2018-11-01T08:07:36.169Z,5.43
2018-11-01T08:10:06.084Z,5.03
2018-11-01T08:12:34.172Z,4.60
2018-11-01T08:15:02.240Z,4.13
2018-11-01T08:17:30.237Z,4.10
2018-11-01T08:19:58.444Z,4.50
2018-11-01T08:22:26.353Z,4.43
2018-11-01T08:24:54.360Z,5.60
2018-11-01T08:27:22.324Z,4.27
2018-11-01T08:29:50.373Z,4.67
2018-11-01T08:32:18.446Z,6.07
2018-11-01T08:34:46.454Z,3.97
2018-11-01T08:37:14.762Z,5.80
2018-11-01T08:39:42.709Z,4.33
2018-11-01T08:42:13.279Z,4.00
2018-11-01T08:44:41.353Z,3.87
2018-11-01T08:47:09.960Z,4.50
2018-11-01T08:49:38.012Z,4.07
2018-11-01T08:52:06.028Z,4.30
2018-11-01T08:54:45.929Z,3.90
2018-11-01T08:57:14.101Z,4.70
2018-11-01T08:59:42.406Z,4.40
2018-11-01T09:02:10.402Z,4.10
2018-11-01T09:04:38.485Z,3.83
2018-11-01T09:07:06.479Z,3.80
2018-11-01T09:09:34.503Z,3.60
2018-11-01T09:12:02.599Z,7.13
2018-11-01T09:14:30.648Z,3.50
2018-11-01T09:16:58.614Z,3.03
2018-11-01T09:19:27.343Z,3.77
2018-11-01T09:21:55.325Z,5.43
2018-11-01T09:24:23.345Z,3.50
2018-11-01T09:26:51.369Z,3.10
2018-11-01T09:29:19.290Z,4.47
2018-11-01T09:31:47.257Z,4.00
2018-11-01T09:34:15.255Z,3.37
2018-11-01T09:36:43.349Z,4.13
2018-11-01T09:39:12.091Z,3.23
2018-11-01T09:41:40.756Z,3.57
2018-11-01T09:44:08.731Z,3.90
2018-11-01T09:46:37.093Z,3.50
2018-11-01T09:49:05.581Z,2.83
2018-11-01T09:51:33.623Z,2.80
2018-11-01T09:54:01.592Z,3.30
2018-11-01T09:56:29.647Z,5.30
2018-11-01T09:58:59.011Z,5.30
2018-11-01T10:01:27.054Z,3.40
2018-11-01T10:03:55.053Z,3.17
2018-11-01T10:06:23.649Z,3.93
2018-11-01T10:08:51.599Z,3.70
2018-11-01T10:11:19.601Z,3.40
2018-11-01T10:13:47.547Z,3.33
2018-11-01T10:16:15.682Z,3.53
2018-11-01T10:18:43.577Z,3.33
2018-11-01T10:21:11.678Z,3.50
2018-11-01T10:23:39.846Z,3.37
2018-11-01T10:26:07.852Z,3.13
2018-11-01T10:28:35.893Z,3.53
2018-11-01T10:31:04.499Z,3.00
2018-11-01T10:33:33.031Z,3.23
2018-11-01T10:36:01.811Z,4.60
2018-11-01T10:38:29.891Z,3.00
2018-11-01T10:40:58.093Z,3.30
2018-11-01T10:43:26.048Z,2.80
2018-11-01T10:45:54.025Z,2.90
2018-11-01T10:48:22.009Z,3.10
2018-11-01T10:50:50.056Z,2.77
2018-11-01T10:53:18.092Z,3.50
2018-11-01T10:55:46.562Z,3.23
2018-11-01T10:58:14.504Z,3.43
2018-11-01T11:00:48.092Z,3.10
2018-11-01T11:03:16.093Z,3.47
2018-11-01T11:05:44.030Z,3.60
2018-11-01T11:08:11.952Z,3.37
2018-11-01T11:10:39.955Z,3.23
2018-11-01T11:13:07.895Z,4.60
2018-11-01T11:15:35.957Z,3.00
2018-11-01T11:18:03.914Z,5.07
2018-11-01T11:20:32.039Z,3.43
2018-11-01T11:22:59.893Z,2.70
2018-11-01T11:25:27.871Z,2.70
2018-11-01T11:27:55.865Z,3.47
2018-11-01T11:30:24.354Z,4.50
2018-11-01T11:32:52.249Z,5.00
2018-11-01T11:35:20.227Z,3.20
2018-11-01T11:37:48.224Z,3.57
2018-11-01T11:40:16.220Z,2.97
2018-11-01T11:42:44.281Z,4.67
2018-11-01T11:45:12.897Z,3.73
2018-11-01T11:47:41.455Z,4.17
2018-11-01T11:50:10.920Z,3.73
2018-11-01T11:52:38.949Z,4.07
2018-11-01T11:55:07.512Z,3.30
2018-11-01T11:57:35.543Z,5.63
2018-11-01T12:00:03.862Z,3.83
2018-11-01T12:02:31.953Z,4.97
2018-11-01T12:04:59.930Z,4.70
2018-11-01T12:07:27.976Z,4.40
2018-11-01T12:09:56.039Z,3.63
2018-11-01T12:12:24.037Z,4.20
2018-11-01T12:14:52.052Z,4.87
2018-11-01T12:17:20.126Z,5.97
2018-11-01T12:19:48.091Z,4.53
2018-11-01T12:22:16.369Z,4.43
2018-11-01T12:24:44.811Z,4.23
2018-11-01T12:27:12.763Z,6.63
2018-11-01T12:29:40.674Z,4.07
2018-11-01T12:32:08.731Z,5.70
2018-11-01T12:34:36.676Z,4.80
2018-11-01T12:37:08.343Z,5.10
2018-11-01T12:39:36.291Z,4.87
2018-11-01T12:42:04.347Z,5.40
2018-11-01T12:44:32.358Z,4.73
2018-11-01T12:47:00.315Z,5.67
2018-11-01T12:49:28.225Z,6.07
2018-11-01T12:51:56.198Z,5.60
2018-11-01T12:54:24.179Z,5.43
2018-11-01T12:56:54.852Z,6.37
2018-11-01T12:59:22.774Z,4.90
2018-11-01T13:01:50.793Z,5.30
2018-11-01T13:04:18.964Z,4.77
2018-11-01T13:06:47.007Z,6.87
2018-11-01T13:09:14.931Z,5.83
2018-11-01T13:11:43.168Z,5.00
2018-11-01T13:14:11.115Z,6.70
2018-11-01T13:16:39.504Z,6.97
2018-11-01T13:19:07.524Z,6.77
2018-11-01T13:21:35.522Z,5.83
2018-11-01T13:24:03.520Z,6.03
2018-11-01T13:26:34.201Z,6.93
2018-11-01T13:29:02.195Z,5.50
2018-11-01T13:31:30.199Z,5.30
2018-11-01T13:33:58.269Z,6.57
2018-11-01T13:36:26.247Z,6.67
2018-11-01T13:38:54.209Z,4.90
2018-11-01T13:41:22.319Z,4.87
2018-11-01T13:43:50.377Z,5.33
2018-11-01T13:46:18.571Z,5.13
2018-11-01T13:48:47.303Z,5.47
2018-11-01T13:51:16.084Z,6.00
2018-11-01T13:53:44.108Z,5.40
2018-11-01T13:56:12.018Z,5.53
2018-11-01T13:58:40.001Z,5.07
2018-11-01T14:01:08.102Z,6.53
2018-11-01T14:03:36.020Z,10.77
2018-11-01T14:06:04.027Z,6.73
2018-11-01T14:08:31.981Z,4.67
2018-11-01T14:10:59.902Z,6.60
2018-11-01T14:13:28.123Z,4.20
2018-11-01T14:15:55.977Z,5.83
2018-11-01T14:18:23.934Z,5.07
2018-11-01T14:20:51.902Z,4.53
2018-11-01T14:23:19.848Z,4.53
2018-11-01T14:25:47.917Z,5.07
2018-11-01T14:28:16.050Z,6.07
2018-11-01T14:30:44.154Z,5.40
2018-11-01T14:33:12.154Z,7.03
2018-11-01T14:35:40.059Z,4.37
2018-11-01T14:38:08.155Z,5.63
2018-11-01T14:40:36.091Z,5.53
2018-11-01T14:43:04.612Z,4.90
2018-11-01T14:45:33.208Z,5.53
2018-11-01T14:48:01.149Z,6.40
2018-11-01T14:50:29.084Z,5.03
2018-11-01T14:52:57.210Z,5.17
2018-11-01T14:55:26.231Z,5.20
2018-11-01T14:58:00.093Z,4.37
2018-11-01T15:00:26.545Z,5.10
2018-11-01T15:02:59.549Z,4.50
2018-11-01T15:05:30.581Z,5.40
2018-11-01T15:07:58.613Z,5.40
2018-11-01T15:10:27.384Z,5.80
2018-11-01T15:13:05.597Z,6.27
2018-11-01T15:15:36.681Z,6.87
2018-11-01T15:18:04.891Z,5.20
2018-11-01T15:20:33.869Z,4.20
2018-11-01T15:23:02.065Z,4.53
2018-11-01T15:25:31.656Z,5.00
2018-11-01T15:27:59.638Z,5.53
2018-11-01T15:30:27.759Z,4.60
2018-11-01T15:32:56.413Z,4.87
2018-11-01T15:35:24.527Z,4.73
2018-11-01T15:37:55.027Z,7.37
2018-11-01T15:40:23.190Z,4.90
2018-11-01T15:42:51.232Z,7.47
2018-11-01T15:45:19.294Z,5.30
2018-11-01T15:47:47.451Z,4.40
2018-11-01T15:50:15.467Z,4.33
2018-11-01T15:52:44.539Z,5.23
2018-11-01T15:55:12.571Z,4.87
2018-11-01T15:57:40.619Z,4.53
2018-11-01T16:00:10.662Z,4.43
2018-11-01T16:02:39.992Z,4.93
2018-11-01T16:05:08.169Z,4.07
2018-11-01T16:07:36.317Z,4.30
2018-11-01T16:10:05.667Z,6.43
2018-11-01T16:12:33.815Z,5.13
2018-11-01T16:15:01.764Z,4.53
2018-11-01T16:17:29.925Z,4.83
2018-11-01T16:19:58.211Z,6.20
2018-11-01T16:22:27.321Z,6.33
2018-11-01T16:24:55.360Z,8.77
2018-11-01T16:27:23.365Z,5.17
2018-11-01T16:29:51.332Z,4.57
2018-11-01T16:32:19.447Z,5.80
2018-11-01T16:34:47.575Z,6.83
2018-11-01T16:37:15.643Z,8.37
2018-11-01T16:39:43.635Z,5.50
2018-11-01T16:42:11.693Z,6.20
2018-11-01T16:44:39.600Z,5.90
2018-11-01T16:47:07.706Z,7.67
2018-11-01T16:49:36.276Z,5.60
2018-11-01T16:52:04.334Z,5.57
2018-11-01T16:54:32.381Z,5.67
2018-11-01T16:57:00.784Z,7.03
2018-11-01T16:59:28.894Z,7.03
2018-11-01T17:01:57.258Z,6.30
2018-11-01T17:04:25.284Z,7.10
2018-11-01T17:06:53.230Z,6.03
2018-11-01T17:09:21.307Z,6.73
2018-11-01T17:11:49.380Z,7.57
2018-11-01T17:14:18.131Z,7.53
2018-11-01T17:16:46.215Z,7.30
2018-11-01T17:19:14.212Z,6.83
2018-11-01T17:21:42.470Z,6.87
2018-11-01T17:24:10.448Z,8.50
2018-11-01T17:26:38.448Z,10.13
2018-11-01T17:29:06.474Z,7.57
2018-11-01T17:31:34.448Z,8.07
2018-11-01T17:34:02.494Z,6.37
2018-11-01T17:36:30.522Z,7.30
2018-11-01T17:38:58.528Z,7.60
2018-11-01T17:41:26.468Z,7.47
2018-11-01T17:43:54.471Z,10.10
2018-11-01T17:46:22.538Z,8.73
2018-11-01T17:48:50.528Z,8.03
2018-11-01T17:51:18.613Z,13.00
2018-11-01T17:53:46.536Z,12.77
2018-11-01T17:56:14.725Z,15.40
2018-11-01T17:58:42.702Z,11.97
2018-11-01T18:01:10.691Z,13.50
2018-11-01T18:03:38.717Z,16.00
2018-11-01T18:06:06.724Z,14.33
2018-11-01T18:08:34.947Z,11.83
2018-11-01T18:11:02.897Z,9.03
2018-11-01T18:13:30.872Z,9.20
2018-11-01T18:15:58.888Z,7.87
2018-11-01T18:18:26.929Z,7.93
2018-11-01T18:20:55.189Z,9.37
2018-11-01T18:23:23.511Z,8.33
2018-11-01T18:25:51.733Z,10.20
2018-11-01T18:28:20.644Z,7.80
2018-11-01T18:30:48.960Z,11.20
2018-11-01T18:33:17.465Z,11.30
2018-11-01T18:35:45.430Z,10.80
2018-11-01T18:38:13.511Z,9.40
2018-11-01T18:40:41.529Z,8.20
2018-11-01T18:43:09.593Z,11.20
2018-11-01T18:45:37.585Z,10.63
2018-11-01T18:48:05.771Z,9.33
2018-11-01T18:50:33.768Z,9.60
2018-11-01T18:53:01.784Z,8.27
2018-11-01T18:55:29.753Z,9.30
2018-11-01T18:57:57.880Z,7.90
2018-11-01T19:00:25.961Z,9.87
2018-11-01T19:02:53.997Z,9.50
2018-11-01T19:05:22.115Z,9.60
2018-11-01T19:07:50.203Z,10.23
2018-11-01T19:10:18.240Z,9.13
2018-11-01T19:12:46.248Z,8.40
2018-11-01T19:15:14.891Z,9.03
2018-11-01T19:17:43.176Z,8.97
2018-11-01T19:20:12.000Z,9.77
2018-11-01T19:22:40.125Z,10.70
2018-11-01T19:25:08.899Z,10.33
2018-11-01T19:27:37.371Z,10.63
2018-11-01T19:30:06.549Z,10.20
2018-11-01T19:32:34.592Z,9.37
2018-11-01T19:35:02.716Z,10.10
2018-11-01T19:37:30.784Z,11.43
2018-11-01T19:39:58.952Z,12.27
2018-11-01T19:42:26.985Z,10.67
2018-11-01T19:44:55.014Z,9.63
2018-11-01T19:47:23.042Z,12.07
2018-11-01T19:49:51.087Z,12.17
2018-11-01T19:52:19.124Z,11.63
2018-11-01T19:54:47.191Z,11.77
2018-11-01T19:57:15.145Z,11.40
2018-11-01T19:59:43.115Z,11.57
2018-11-01T20:02:11.159Z,13.77
2018-11-01T20:04:39.173Z,13.23
2018-11-01T20:07:07.198Z,11.60
2018-11-01T20:09:35.246Z,13.63
2018-11-01T20:12:03.378Z,12.63
2018-11-01T20:14:31.402Z,11.80
2018-11-01T20:16:59.317Z,11.63
2018-11-01T20:19:27.338Z,14.87
2018-11-01T20:21:55.242Z,13.53
2018-11-01T20:24:23.211Z,11.77
2018-11-01T20:26:51.152Z,13.13
2018-11-01T20:29:19.104Z,15.97
2018-11-01T20:31:47.220Z,15.53
2018-11-01T20:34:15.874Z,16.37
2018-11-01T20:36:43.929Z,14.10
2018-11-01T20:39:13.528Z,14.53
2018-11-01T20:41:41.837Z,13.90
2018-11-01T20:44:11.449Z,16.97
2018-11-01T20:46:39.742Z,16.73
2018-11-01T20:49:07.762Z,16.30
2018-11-01T20:51:35.995Z,13.87
2018-11-01T20:54:04.338Z,15.37
2018-11-01T20:56:32.321Z,15.60
2018-11-01T20:59:00.248Z,16.23
2018-11-01T21:01:28.315Z,16.17
2018-11-01T21:03:56.317Z,18.33
2018-11-01T21:06:24.286Z,17.70
2018-11-01T21:08:52.694Z,17.63
2018-11-01T21:11:27.398Z,17.80
2018-11-01T21:13:55.245Z,17.57
2018-11-01T21:16:23.519Z,20.60
2018-11-01T21:18:51.457Z,18.00
2018-11-01T21:21:19.453Z,17.30
2018-11-01T21:23:47.590Z,23.97
2018-11-01T21:26:15.644Z,20.33
2018-11-01T21:28:43.859Z,23.03
2018-11-01T21:31:12.946Z,17.67
2018-11-01T21:33:40.937Z,24.33
2018-11-01T21:36:09.033Z,24.00
2018-11-01T21:38:37.181Z,21.77
2018-11-01T21:41:05.298Z,22.27
2018-11-01T21:43:33.246Z,22.40
2018-11-01T21:46:01.320Z,21.87
2018-11-01T21:48:29.388Z,23.83
2018-11-01T21:50:57.378Z,23.47
2018-11-01T21:53:25.415Z,22.33
2018-11-01T21:55:53.469Z,24.60
2018-11-01T21:58:21.471Z,24.10
2018-11-01T22:00:49.451Z,23.37
2018-11-01T22:03:17.472Z,21.27
2018-11-01T22:05:45.444Z,23.10
2018-11-01T22:08:13.392Z,24.63
2018-11-01T22:10:41.453Z,22.73
2018-11-01T22:13:09.428Z,21.13
2018-11-01T22:15:37.449Z,22.27
2018-11-01T22:18:05.952Z,25.00
2018-11-01T22:20:34.040Z,26.53
2018-11-01T22:23:02.044Z,27.40
2018-11-01T22:25:30.025Z,27.03
2018-11-01T22:27:58.097Z,22.17
2018-11-01T22:30:26.042Z,21.40
2018-11-01T22:32:54.102Z,22.57
2018-11-01T22:35:22.107Z,23.43
2018-11-01T22:37:50.115Z,25.13
2018-11-01T22:40:18.106Z,23.53
2018-11-01T22:42:46.062Z,24.40
2018-11-01T22:45:14.083Z,21.73
2018-11-01T22:47:42.046Z,20.77
2018-11-01T22:50:10.776Z,22.73
2018-11-01T22:52:39.219Z,24.63
2018-11-01T22:55:08.586Z,20.03
2018-11-01T22:57:36.582Z,23.37
2018-11-01T23:00:06.104Z,21.80
2018-11-01T23:02:33.998Z,23.50
2018-11-01T23:05:02.064Z,23.07
2018-11-01T23:07:30.085Z,20.60
2018-11-01T23:09:58.170Z,20.33
2018-11-01T23:12:26.173Z,21.57
2018-11-01T23:14:54.209Z,21.97
2018-11-01T23:17:22.233Z,22.47
2018-11-01T23:19:50.257Z,21.10
2018-11-01T23:22:18.513Z,21.03
2018-11-01T23:24:46.514Z,21.63
2018-11-01T23:27:14.625Z,19.10
2018-11-01T23:29:42.666Z,23.57
2018-11-01T23:32:10.656Z,22.10
2018-11-01T23:34:38.632Z,19.63
2018-11-01T23:37:12.625Z,19.63
2018-11-01T23:39:46.243Z,20.23
2018-11-01T23:42:21.233Z,15.67
2018-11-01T23:44:54.798Z,20.07
2018-11-01T23:47:28.439Z,19.23
2018-11-01T23:50:01.789Z,18.97
2018-11-01T23:52:30.167Z,21.63
2018-11-01T23:54:58.138Z,20.20
2018-11-01T23:57:26.220Z,19.23
2018-11-01T23:59:54.168Z,20.53
